sensor_id;sensor_type;location;lat;lon;timestamp;temperature;humidity
16114;DHT22;8161;-33.910;151.156;2024-02-16T00:01:15;24.20;99.90
16114;DHT22;8161;-33.910;151.156;2024-02-16T00:25:49;24.90;99.90
16114;DHT22;8161;-33.910;151.156;2024-02-16T01:05:04;25.80;99.90
16114;DHT22;8161;-33.910;151.156;2024-02-16T01:07:31;22.00;99.90
16114;DHT22;8161;-33.910;151.156;2024-02-16T01:12:26;25.90;99.90
16114;DHT22;8161;-33.910;151.156;2024-02-16T01:14:53;25.90;99.90
16114;DHT22;8161;-33.910;151.156;2024-02-16T01:24:42;26.20;99.90
16114;DHT22;8161;-33.910;151.156;2024-02-16T01:29:37;26.70;99.90
16114;DHT22;8161;-33.910;151.156;2024-02-16T01:32:05;26.00;99.90
16114;DHT22;8161;-33.910;151.156;2024-02-16T01:41:53;26.00;99.90
16114;DHT22;8161;-33.910;151.156;2024-02-16T01:44:20;26.20;99.90
16114;DHT22;8161;-33.910;151.156;2024-02-16T01:49:15;27.20;99.90
16114;DHT22;8161;-33.910;151.156;2024-02-16T01:51:43;27.40;99.90
16114;DHT22;8161;-33.910;151.156;2024-02-16T01:54:14;27.70;99.90
16114;DHT22;8161;-33.910;151.156;2024-02-16T01:56:45;27.90;99.90
16114;DHT22;8161;-33.910;151.156;2024-02-16T01:59:12;27.90;99.90
16114;DHT22;8161;-33.910;151.156;2024-02-16T02:01:40;27.80;99.90
16114;DHT22;8161;-33.910;151.156;2024-02-16T02:09:01;27.60;99.90
16114;DHT22;8161;-33.910;151.156;2024-02-16T02:16:23;27.40;99.90
16114;DHT22;8161;-33.910;151.156;2024-02-16T02:23:50;28.20;99.90
16114;DHT22;8161;-33.910;151.156;2024-02-16T02:26:21;28.00;99.90
16114;DHT22;8161;-33.910;151.156;2024-02-16T02:28:48;28.70;99.90
16114;DHT22;8161;-33.910;151.156;2024-02-16T02:31:16;28.90;99.90
16114;DHT22;8161;-33.910;151.156;2024-02-16T02:33:43;29.00;99.90
16114;DHT22;8161;-33.910;151.156;2024-02-16T02:38:41;28.50;99.90
16114;DHT22;8161;-33.910;151.156;2024-02-16T02:46:02;28.20;99.90
16114;DHT22;8161;-33.910;151.156;2024-02-16T02:50:56;28.70;99.90
16114;DHT22;8161;-33.910;151.156;2024-02-16T02:58:23;29.10;99.90
16114;DHT22;8161;-33.910;151.156;2024-02-16T03:08:12;29.70;99.90
16114;DHT22;8161;-33.910;151.156;2024-02-16T03:18:02;29.70;99.90
16114;DHT22;8161;-33.910;151.156;2024-02-16T03:20:31;29.70;99.90
16114;DHT22;8161;-33.910;151.156;2024-02-16T03:30:23;29.90;99.90
16114;DHT22;8161;-33.910;151.156;2024-02-16T03:35:17;30.10;99.90
16114;DHT22;8161;-33.910;151.156;2024-02-16T03:37:45;30.00;99.90
16114;DHT22;8161;-33.910;151.156;2024-02-16T03:42:40;30.50;99.90
16114;DHT22;8161;-33.910;151.156;2024-02-16T03:45:08;30.50;99.90
16114;DHT22;8161;-33.910;151.156;2024-02-16T03:50:03;30.20;99.90
16114;DHT22;8161;-33.910;151.156;2024-02-16T04:21:57;30.80;99.90
16114;DHT22;8161;-33.910;151.156;2024-02-16T04:39:23;30.70;99.90
16114;DHT22;8161;-33.910;151.156;2024-02-16T04:41:50;30.00;99.90
16114;DHT22;8161;-33.910;151.156;2024-02-16T04:44:19;30.10;99.90
16114;DHT22;8161;-33.910;151.156;2024-02-16T04:49:14;30.10;99.90
16114;DHT22;8161;-33.910;151.156;2024-02-16T04:51:41;30.50;99.90
16114;DHT22;8161;-33.910;151.156;2024-02-16T05:16:19;28.80;99.90
16114;DHT22;8161;-33.910;151.156;2024-02-16T05:21:14;28.30;99.90
16114;DHT22;8161;-33.910;151.156;2024-02-16T05:31:14;28.40;99.90
16114;DHT22;8161;-33.910;151.156;2024-02-16T05:33:46;28.30;99.90
16114;DHT22;8161;-33.910;151.156;2024-02-16T05:36:20;28.40;99.90
16114;DHT22;8161;-33.910;151.156;2024-02-16T05:38:48;27.90;99.90
16114;DHT22;8161;-33.910;151.156;2024-02-16T05:41:16;27.70;99.90
16114;DHT22;8161;-33.910;151.156;2024-02-16T05:43:44;27.80;99.90
16114;DHT22;8161;-33.910;151.156;2024-02-16T05:46:17;27.80;99.90
16114;DHT22;8161;-33.910;151.156;2024-02-16T05:51:13;27.70;99.90
16114;DHT22;8161;-33.910;151.156;2024-02-16T05:53:41;27.70;99.90
16114;DHT22;8161;-33.910;151.156;2024-02-16T05:56:08;27.90;99.90
16114;DHT22;8161;-33.910;151.156;2024-02-16T05:58:36;28.10;99.90
16114;DHT22;8161;-33.910;151.156;2024-02-16T06:03:30;28.60;99.90
16114;DHT22;8161;-33.910;151.156;2024-02-16T06:05:58;28.60;99.90
16114;DHT22;8161;-33.910;151.156;2024-02-16T06:08:25;28.70;99.90
16114;DHT22;8161;-33.910;151.156;2024-02-16T06:13:21;28.20;99.90
16114;DHT22;8161;-33.910;151.156;2024-02-16T06:18:15;25.50;99.90
16114;DHT22;8161;-33.910;151.156;2024-02-16T06:20:43;27.70;99.90
16114;DHT22;8161;-33.910;151.156;2024-02-16T06:37:54;27.20;99.90
16114;DHT22;8161;-33.910;151.156;2024-02-16T06:40:21;27.60;99.90
16114;DHT22;8161;-33.910;151.156;2024-02-16T06:42:48;27.00;99.90
16114;DHT22;8161;-33.910;151.156;2024-02-16T06:47:43;27.00;99.90
16114;DHT22;8161;-33.910;151.156;2024-02-16T06:50:11;27.00;99.90
16114;DHT22;8161;-33.910;151.156;2024-02-16T06:52:38;27.00;99.90
16114;DHT22;8161;-33.910;151.156;2024-02-16T06:57:33;26.90;99.90
16114;DHT22;8161;-33.910;151.156;2024-02-16T07:00:00;27.00;99.90
16114;DHT22;8161;-33.910;151.156;2024-02-16T07:02:29;27.00;99.90
16114;DHT22;8161;-33.910;151.156;2024-02-16T07:04:56;27.00;99.90
16114;DHT22;8161;-33.910;151.156;2024-02-16T07:07:24;26.90;99.90
16114;DHT22;8161;-33.910;151.156;2024-02-16T07:14:45;26.90;99.90
16114;DHT22;8161;-33.910;151.156;2024-02-16T07:17:13;26.30;99.90
16114;DHT22;8161;-33.910;151.156;2024-02-16T07:19:40;26.80;99.90
16114;DHT22;8161;-33.910;151.156;2024-02-16T07:22:07;26.80;99.90
16114;DHT22;8161;-33.910;151.156;2024-02-16T07:27:03;27.00;99.90
16114;DHT22;8161;-33.910;151.156;2024-02-16T07:29:31;26.60;99.90
16114;DHT22;8161;-33.910;151.156;2024-02-16T07:31:58;26.60;99.90
16114;DHT22;8161;-33.910;151.156;2024-02-16T07:34:25;26.40;99.90
16114;DHT22;8161;-33.910;151.156;2024-02-16T07:36:54;26.40;99.90
16114;DHT22;8161;-33.910;151.156;2024-02-16T07:39:21;26.50;99.90
16114;DHT22;8161;-33.910;151.156;2024-02-16T07:41:50;26.50;99.90
16114;DHT22;8161;-33.910;151.156;2024-02-16T07:44:17;26.50;99.90
16114;DHT22;8161;-33.910;151.156;2024-02-16T07:49:17;26.70;99.90
16114;DHT22;8161;-33.910;151.156;2024-02-16T07:54:11;26.30;99.90
16114;DHT22;8161;-33.910;151.156;2024-02-16T07:59:05;26.30;99.90
16114;DHT22;8161;-33.910;151.156;2024-02-16T08:01:33;26.30;99.90
16114;DHT22;8161;-33.910;151.156;2024-02-16T08:04:00;26.30;99.90
16114;DHT22;8161;-33.910;151.156;2024-02-16T08:06:27;26.20;99.90
16114;DHT22;8161;-33.910;151.156;2024-02-16T08:08:55;26.20;99.90
16114;DHT22;8161;-33.910;151.156;2024-02-16T08:11:23;26.00;99.90
16114;DHT22;8161;-33.910;151.156;2024-02-16T08:13:51;26.10;99.90
16114;DHT22;8161;-33.910;151.156;2024-02-16T08:16:18;26.10;99.90
16114;DHT22;8161;-33.910;151.156;2024-02-16T08:18:45;26.00;99.90
16114;DHT22;8161;-33.910;151.156;2024-02-16T08:23:40;25.90;99.90
16114;DHT22;8161;-33.910;151.156;2024-02-16T08:28:34;26.00;99.90
16114;DHT22;8161;-33.910;151.156;2024-02-16T08:31:01;26.00;99.90
16114;DHT22;8161;-33.910;151.156;2024-02-16T08:35:56;26.00;99.90
16114;DHT22;8161;-33.910;151.156;2024-02-16T08:38:23;26.00;99.90
16114;DHT22;8161;-33.910;151.156;2024-02-16T08:40:51;26.00;99.90
16114;DHT22;8161;-33.910;151.156;2024-02-16T08:50:45;26.00;99.90
16114;DHT22;8161;-33.910;151.156;2024-02-16T08:55:41;26.00;99.90
16114;DHT22;8161;-33.910;151.156;2024-02-16T08:58:08;25.90;99.90
16114;DHT22;8161;-33.910;151.156;2024-02-16T09:00:36;26.20;99.90
16114;DHT22;8161;-33.910;151.156;2024-02-16T09:03:04;25.80;99.90
16114;DHT22;8161;-33.910;151.156;2024-02-16T09:05:32;25.90;99.90
16114;DHT22;8161;-33.910;151.156;2024-02-16T09:08:00;26.00;99.90
16114;DHT22;8161;-33.910;151.156;2024-02-16T09:10:28;25.90;99.90
16114;DHT22;8161;-33.910;151.156;2024-02-16T09:12:55;26.40;99.90
16114;DHT22;8161;-33.910;151.156;2024-02-16T09:15:23;25.80;99.90
16114;DHT22;8161;-33.910;151.156;2024-02-16T09:17:50;25.70;99.90
16114;DHT22;8161;-33.910;151.156;2024-02-16T09:22:49;25.80;99.90
16114;DHT22;8161;-33.910;151.156;2024-02-16T09:25:16;25.50;99.90
16114;DHT22;8161;-33.910;151.156;2024-02-16T09:27:43;25.80;99.90
16114;DHT22;8161;-33.910;151.156;2024-02-16T09:32:41;25.80;99.90
16114;DHT22;8161;-33.910;151.156;2024-02-16T09:35:09;25.80;99.90
16114;DHT22;8161;-33.910;151.156;2024-02-16T09:37:39;25.70;99.90
16114;DHT22;8161;-33.910;151.156;2024-02-16T09:42:38;25.70;99.90
16114;DHT22;8161;-33.910;151.156;2024-02-16T09:47:39;25.70;99.90
16114;DHT22;8161;-33.910;151.156;2024-02-16T09:55:04;25.20;99.90
16114;DHT22;8161;-33.910;151.156;2024-02-16T09:57:33;25.80;99.90
16114;DHT22;8161;-33.910;151.156;2024-02-16T10:02:27;25.70;99.90
16114;DHT22;8161;-33.910;151.156;2024-02-16T10:12:26;25.70;99.90
16114;DHT22;8161;-33.910;151.156;2024-02-16T10:17:25;26.00;99.90
16114;DHT22;8161;-33.910;151.156;2024-02-16T10:20:00;25.50;99.90
16114;DHT22;8161;-33.910;151.156;2024-02-16T10:25:09;25.60;99.90
16114;DHT22;8161;-33.910;151.156;2024-02-16T10:30:08;25.60;99.90
16114;DHT22;8161;-33.910;151.156;2024-02-16T10:32:39;25.40;99.90
16114;DHT22;8161;-33.910;151.156;2024-02-16T10:35:07;25.50;99.90
16114;DHT22;8161;-33.910;151.156;2024-02-16T10:37:39;25.50;99.90
16114;DHT22;8161;-33.910;151.156;2024-02-16T10:40:08;25.30;99.90
16114;DHT22;8161;-33.910;151.156;2024-02-16T10:42:38;25.20;99.90
16114;DHT22;8161;-33.910;151.156;2024-02-16T10:45:07;25.10;99.90
16114;DHT22;8161;-33.910;151.156;2024-02-16T10:47:34;25.50;99.90
16114;DHT22;8161;-33.910;151.156;2024-02-16T10:50:02;25.40;99.90
16114;DHT22;8161;-33.910;151.156;2024-02-16T10:52:31;26.00;99.90
16114;DHT22;8161;-33.910;151.156;2024-02-16T10:54:59;25.40;99.90
16114;DHT22;8161;-33.910;151.156;2024-02-16T10:57:27;25.30;99.90
16114;DHT22;8161;-33.910;151.156;2024-02-16T10:59:56;25.40;99.90
16114;DHT22;8161;-33.910;151.156;2024-02-16T11:02:25;25.20;99.90
16114;DHT22;8161;-33.910;151.156;2024-02-16T11:04:53;25.40;99.90
16114;DHT22;8161;-33.910;151.156;2024-02-16T11:07:21;25.30;99.90
16114;DHT22;8161;-33.910;151.156;2024-02-16T11:09:48;25.20;99.90
16114;DHT22;8161;-33.910;151.156;2024-02-16T11:12:17;25.50;99.90
16114;DHT22;8161;-33.910;151.156;2024-02-16T11:14:46;25.50;99.90
16114;DHT22;8161;-33.910;151.156;2024-02-16T11:17:15;25.30;99.90
16114;DHT22;8161;-33.910;151.156;2024-02-16T11:19:43;25.40;99.90
16114;DHT22;8161;-33.910;151.156;2024-02-16T11:22:14;25.30;99.90
16114;DHT22;8161;-33.910;151.156;2024-02-16T11:24:49;25.50;99.90
16114;DHT22;8161;-33.910;151.156;2024-02-16T11:27:18;25.30;99.90
16114;DHT22;8161;-33.910;151.156;2024-02-16T11:29:46;25.30;99.90
16114;DHT22;8161;-33.910;151.156;2024-02-16T11:32:13;25.20;99.90
16114;DHT22;8161;-33.910;151.156;2024-02-16T11:37:08;25.40;99.90
16114;DHT22;8161;-33.910;151.156;2024-02-16T11:39:36;25.50;99.90
16114;DHT22;8161;-33.910;151.156;2024-02-16T11:44:33;25.20;99.90
16114;DHT22;8161;-33.910;151.156;2024-02-16T11:47:02;25.40;99.90
16114;DHT22;8161;-33.910;151.156;2024-02-16T11:49:30;25.20;99.90
16114;DHT22;8161;-33.910;151.156;2024-02-16T11:52:00;25.40;99.90
16114;DHT22;8161;-33.910;151.156;2024-02-16T11:54:27;25.20;99.90
16114;DHT22;8161;-33.910;151.156;2024-02-16T11:56:54;25.40;99.90
16114;DHT22;8161;-33.910;151.156;2024-02-16T11:59:22;25.10;99.90
16114;DHT22;8161;-33.910;151.156;2024-02-16T12:01:56;25.40;99.90
16114;DHT22;8161;-33.910;151.156;2024-02-16T12:04:30;25.30;99.90
16114;DHT22;8161;-33.910;151.156;2024-02-16T12:06:59;25.40;99.90
16114;DHT22;8161;-33.910;151.156;2024-02-16T12:09:27;25.20;99.90
16114;DHT22;8161;-33.910;151.156;2024-02-16T12:11:55;25.40;99.90
16114;DHT22;8161;-33.910;151.156;2024-02-16T12:14:23;25.30;99.90
16114;DHT22;8161;-33.910;151.156;2024-02-16T12:16:55;26.00;99.90
16114;DHT22;8161;-33.910;151.156;2024-02-16T12:19:22;25.50;99.90
16114;DHT22;8161;-33.910;151.156;2024-02-16T12:21:54;25.40;99.90
16114;DHT22;8161;-33.910;151.156;2024-02-16T12:24:21;25.40;99.90
16114;DHT22;8161;-33.910;151.156;2024-02-16T12:26:49;25.20;99.90
16114;DHT22;8161;-33.910;151.156;2024-02-16T12:29:16;25.30;99.90
16114;DHT22;8161;-33.910;151.156;2024-02-16T12:31:47;25.40;99.90
16114;DHT22;8161;-33.910;151.156;2024-02-16T12:36:43;25.80;99.90
16114;DHT22;8161;-33.910;151.156;2024-02-16T12:39:10;25.20;99.90
16114;DHT22;8161;-33.910;151.156;2024-02-16T12:41:41;25.40;99.90
16114;DHT22;8161;-33.910;151.156;2024-02-16T12:44:10;25.40;99.90
16114;DHT22;8161;-33.910;151.156;2024-02-16T12:46:37;25.20;99.90
16114;DHT22;8161;-33.910;151.156;2024-02-16T12:49:06;25.20;99.90
16114;DHT22;8161;-33.910;151.156;2024-02-16T12:51:34;25.20;99.90
16114;DHT22;8161;-33.910;151.156;2024-02-16T12:54:02;25.20;99.90
16114;DHT22;8161;-33.910;151.156;2024-02-16T13:03:55;24.90;99.90
16114;DHT22;8161;-33.910;151.156;2024-02-16T13:06:22;25.70;99.90
16114;DHT22;8161;-33.910;151.156;2024-02-16T13:08:50;25.20;99.90
16114;DHT22;8161;-33.910;151.156;2024-02-16T13:11:17;25.20;99.90
16114;DHT22;8161;-33.910;151.156;2024-02-16T13:13:44;25.20;99.90
16114;DHT22;8161;-33.910;151.156;2024-02-16T13:16:11;25.20;99.90
16114;DHT22;8161;-33.910;151.156;2024-02-16T13:18:39;25.40;99.90
16114;DHT22;8161;-33.910;151.156;2024-02-16T13:23:34;25.30;99.90
16114;DHT22;8161;-33.910;151.156;2024-02-16T13:28:28;25.40;99.90
16114;DHT22;8161;-33.910;151.156;2024-02-16T13:30:56;25.60;99.90
16114;DHT22;8161;-33.910;151.156;2024-02-16T13:33:24;24.90;99.90
16114;DHT22;8161;-33.910;151.156;2024-02-16T13:35:54;25.20;99.90
16114;DHT22;8161;-33.910;151.156;2024-02-16T13:38:21;25.00;99.90
16114;DHT22;8161;-33.910;151.156;2024-02-16T13:43:16;25.00;99.90
16114;DHT22;8161;-33.910;151.156;2024-02-16T13:50:58;25.20;99.90
16114;DHT22;8161;-33.910;151.156;2024-02-16T13:53:26;24.80;99.90
16114;DHT22;8161;-33.910;151.156;2024-02-16T13:55:53;24.80;99.90
16114;DHT22;8161;-33.910;151.156;2024-02-16T13:58:22;24.60;99.90
16114;DHT22;8161;-33.910;151.156;2024-02-16T14:00:49;24.90;99.90
16114;DHT22;8161;-33.910;151.156;2024-02-16T14:03:17;24.80;99.90
16114;DHT22;8161;-33.910;151.156;2024-02-16T14:05:46;25.40;99.90
16114;DHT22;8161;-33.910;151.156;2024-02-16T14:08:13;24.80;99.90
16114;DHT22;8161;-33.910;151.156;2024-02-16T14:10:42;25.00;99.90
16114;DHT22;8161;-33.910;151.156;2024-02-16T14:13:09;25.10;99.90
16114;DHT22;8161;-33.910;151.156;2024-02-16T14:15:37;25.00;99.90
16114;DHT22;8161;-33.910;151.156;2024-02-16T14:18:04;25.00;99.90
16114;DHT22;8161;-33.910;151.156;2024-02-16T14:20:34;24.70;99.90
16114;DHT22;8161;-33.910;151.156;2024-02-16T14:23:01;25.00;99.90
16114;DHT22;8161;-33.910;151.156;2024-02-16T14:25:29;24.80;99.90
16114;DHT22;8161;-33.910;151.156;2024-02-16T14:27:56;24.80;99.90
16114;DHT22;8161;-33.910;151.156;2024-02-16T14:30:24;24.80;99.90
16114;DHT22;8161;-33.910;151.156;2024-02-16T14:32:51;24.90;99.90
16114;DHT22;8161;-33.910;151.156;2024-02-16T14:37:46;24.90;99.90
16114;DHT22;8161;-33.910;151.156;2024-02-16T14:40:13;24.90;99.90
16114;DHT22;8161;-33.910;151.156;2024-02-16T14:42:41;24.50;99.90
16114;DHT22;8161;-33.910;151.156;2024-02-16T14:47:36;25.20;99.90
16114;DHT22;8161;-33.910;151.156;2024-02-16T14:50:05;25.00;99.90
16114;DHT22;8161;-33.910;151.156;2024-02-16T14:52:34;25.00;99.90
16114;DHT22;8161;-33.910;151.156;2024-02-16T14:55:01;24.80;99.90
16114;DHT22;8161;-33.910;151.156;2024-02-16T14:57:29;24.70;99.90
16114;DHT22;8161;-33.910;151.156;2024-02-16T15:12:15;24.80;99.90
16114;DHT22;8161;-33.910;151.156;2024-02-16T15:14:47;24.70;99.90
16114;DHT22;8161;-33.910;151.156;2024-02-16T15:17:14;24.70;99.90
16114;DHT22;8161;-33.910;151.156;2024-02-16T15:19:42;25.20;99.90
16114;DHT22;8161;-33.910;151.156;2024-02-16T15:22:09;24.80;99.90
16114;DHT22;8161;-33.910;151.156;2024-02-16T15:27:07;24.90;99.90
16114;DHT22;8161;-33.910;151.156;2024-02-16T15:29:34;24.60;99.90
16114;DHT22;8161;-33.910;151.156;2024-02-16T15:32:01;24.80;99.90
16114;DHT22;8161;-33.910;151.156;2024-02-16T15:36:56;24.90;99.90
16114;DHT22;8161;-33.910;151.156;2024-02-16T15:41:52;24.60;99.90
16114;DHT22;8161;-33.910;151.156;2024-02-16T15:44:21;24.60;99.90
16114;DHT22;8161;-33.910;151.156;2024-02-16T15:46:49;24.40;99.90
16114;DHT22;8161;-33.910;151.156;2024-02-16T15:49:16;24.60;99.90
16114;DHT22;8161;-33.910;151.156;2024-02-16T15:51:44;24.40;99.90
16114;DHT22;8161;-33.910;151.156;2024-02-16T15:54:12;24.50;99.90
16114;DHT22;8161;-33.910;151.156;2024-02-16T15:56:39;24.60;99.90
16114;DHT22;8161;-33.910;151.156;2024-02-16T16:01:34;24.40;99.90
16114;DHT22;8161;-33.910;151.156;2024-02-16T16:08:59;24.30;99.90
16114;DHT22;8161;-33.910;151.156;2024-02-16T16:11:26;24.40;99.90
16114;DHT22;8161;-33.910;151.156;2024-02-16T16:18:48;24.50;99.90
16114;DHT22;8161;-33.910;151.156;2024-02-16T16:21:15;24.50;99.90
16114;DHT22;8161;-33.910;151.156;2024-02-16T16:26:09;24.40;99.90
16114;DHT22;8161;-33.910;151.156;2024-02-16T16:28:37;24.50;99.90
16114;DHT22;8161;-33.910;151.156;2024-02-16T16:31:04;24.30;99.90
16114;DHT22;8161;-33.910;151.156;2024-02-16T16:35:59;24.40;99.90
16114;DHT22;8161;-33.910;151.156;2024-02-16T16:38:29;24.60;99.90
16114;DHT22;8161;-33.910;151.156;2024-02-16T16:43:23;24.50;99.90
16114;DHT22;8161;-33.910;151.156;2024-02-16T16:45:51;24.50;99.90
16114;DHT22;8161;-33.910;151.156;2024-02-16T16:48:18;25.20;99.90
16114;DHT22;8161;-33.910;151.156;2024-02-16T16:50:45;24.60;99.90
16114;DHT22;8161;-33.910;151.156;2024-02-16T16:53:12;24.50;99.90
16114;DHT22;8161;-33.910;151.156;2024-02-16T16:55:40;24.20;99.90
16114;DHT22;8161;-33.910;151.156;2024-02-16T16:58:07;24.60;99.90
16114;DHT22;8161;-33.910;151.156;2024-02-16T17:00:34;24.30;99.90
16114;DHT22;8161;-33.910;151.156;2024-02-16T17:05:29;24.60;99.90
16114;DHT22;8161;-33.910;151.156;2024-02-16T17:10:24;24.30;99.90
16114;DHT22;8161;-33.910;151.156;2024-02-16T17:15:18;24.70;99.90
16114;DHT22;8161;-33.910;151.156;2024-02-16T17:17:46;24.80;99.90
16114;DHT22;8161;-33.910;151.156;2024-02-16T17:20:19;24.30;99.90
16114;DHT22;8161;-33.910;151.156;2024-02-16T17:22:47;24.40;99.90
16114;DHT22;8161;-33.910;151.156;2024-02-16T17:30:11;24.50;99.90
16114;DHT22;8161;-33.910;151.156;2024-02-16T17:32:39;24.30;99.90
16114;DHT22;8161;-33.910;151.156;2024-02-16T17:35:07;24.60;99.90
16114;DHT22;8161;-33.910;151.156;2024-02-16T17:37:35;24.50;99.90
16114;DHT22;8161;-33.910;151.156;2024-02-16T17:40:02;24.50;99.90
16114;DHT22;8161;-33.910;151.156;2024-02-16T17:57:13;24.50;99.90
16114;DHT22;8161;-33.910;151.156;2024-02-16T17:59:42;24.30;99.90
16114;DHT22;8161;-33.910;151.156;2024-02-16T18:04:43;24.50;99.90
16114;DHT22;8161;-33.910;151.156;2024-02-16T18:14:43;24.30;99.90
16114;DHT22;8161;-33.910;151.156;2024-02-16T18:19:43;24.30;99.90
16114;DHT22;8161;-33.910;151.156;2024-02-16T18:22:11;24.20;99.90
16114;DHT22;8161;-33.910;151.156;2024-02-16T18:24:39;24.20;99.90
16114;DHT22;8161;-33.910;151.156;2024-02-16T18:27:06;24.30;99.90
16114;DHT22;8161;-33.910;151.156;2024-02-16T18:29:34;24.10;99.90
16114;DHT22;8161;-33.910;151.156;2024-02-16T18:32:02;24.30;99.90
16114;DHT22;8161;-33.910;151.156;2024-02-16T18:36:56;24.10;99.90
16114;DHT22;8161;-33.910;151.156;2024-02-16T18:39:24;24.60;99.90
16114;DHT22;8161;-33.910;151.156;2024-02-16T18:41:51;24.10;99.90
16114;DHT22;8161;-33.910;151.156;2024-02-16T18:46:46;24.40;99.90
16114;DHT22;8161;-33.910;151.156;2024-02-16T18:49:13;24.40;99.90
16114;DHT22;8161;-33.910;151.156;2024-02-16T18:51:41;24.20;99.90
16114;DHT22;8161;-33.910;151.156;2024-02-16T18:54:08;23.90;99.90
16114;DHT22;8161;-33.910;151.156;2024-02-16T18:59:07;23.80;99.90
16114;DHT22;8161;-33.910;151.156;2024-02-16T19:01:35;23.80;99.90
16114;DHT22;8161;-33.910;151.156;2024-02-16T19:04:03;24.00;99.90
16114;DHT22;8161;-33.910;151.156;2024-02-16T19:28:35;23.60;99.90
16114;DHT22;8161;-33.910;151.156;2024-02-16T19:33:34;23.70;99.90
16114;DHT22;8161;-33.910;151.156;2024-02-16T19:38:30;23.90;99.90
16114;DHT22;8161;-33.910;151.156;2024-02-16T19:40:58;23.80;99.90
16114;DHT22;8161;-33.910;151.156;2024-02-16T19:43:29;23.50;99.90
16114;DHT22;8161;-33.910;151.156;2024-02-16T19:45:56;23.50;99.90
16114;DHT22;8161;-33.910;151.156;2024-02-16T19:48:23;23.70;99.90
16114;DHT22;8161;-33.910;151.156;2024-02-16T19:53:18;23.60;99.90
16114;DHT22;8161;-33.910;151.156;2024-02-16T20:10:28;23.70;99.90
16114;DHT22;8161;-33.910;151.156;2024-02-16T20:12:55;24.10;99.90
16114;DHT22;8161;-33.910;151.156;2024-02-16T20:15:23;23.40;99.90
16114;DHT22;8161;-33.910;151.156;2024-02-16T20:17:58;24.10;99.90
16114;DHT22;8161;-33.910;151.156;2024-02-16T20:22:56;23.70;99.90
16114;DHT22;8161;-33.910;151.156;2024-02-16T20:25:26;23.90;99.90
16114;DHT22;8161;-33.910;151.156;2024-02-16T20:27:53;24.00;99.90
16114;DHT22;8161;-33.910;151.156;2024-02-16T20:35:20;24.10;99.90
16114;DHT22;8161;-33.910;151.156;2024-02-16T20:37:47;24.10;99.90
16114;DHT22;8161;-33.910;151.156;2024-02-16T20:42:42;24.20;99.90
16114;DHT22;8161;-33.910;151.156;2024-02-16T20:45:11;24.60;99.90
16114;DHT22;8161;-33.910;151.156;2024-02-16T20:50:09;24.30;99.90
16114;DHT22;8161;-33.910;151.156;2024-02-16T20:55:04;24.40;99.90
16114;DHT22;8161;-33.910;151.156;2024-02-16T20:57:32;24.90;99.90
16114;DHT22;8161;-33.910;151.156;2024-02-16T20:59:59;24.10;99.90
16114;DHT22;8161;-33.910;151.156;2024-02-16T21:02:30;24.30;99.90
16114;DHT22;8161;-33.910;151.156;2024-02-16T21:04:57;24.50;99.90
16114;DHT22;8161;-33.910;151.156;2024-02-16T21:07:24;24.60;99.90
16114;DHT22;8161;-33.910;151.156;2024-02-16T21:09:54;24.50;99.90
16114;DHT22;8161;-33.910;151.156;2024-02-16T21:14:48;24.90;99.90
16114;DHT22;8161;-33.910;151.156;2024-02-16T21:27:05;25.10;99.90
16114;DHT22;8161;-33.910;151.156;2024-02-16T21:29:33;25.20;99.90
16114;DHT22;8161;-33.910;151.156;2024-02-16T21:32:00;25.70;99.90
16114;DHT22;8161;-33.910;151.156;2024-02-16T21:36:54;25.60;99.90
16114;DHT22;8161;-33.910;151.156;2024-02-16T21:39:24;25.70;99.90
16114;DHT22;8161;-33.910;151.156;2024-02-16T21:46:46;25.80;99.90
16114;DHT22;8161;-33.910;151.156;2024-02-16T21:49:13;26.30;99.90
16114;DHT22;8161;-33.910;151.156;2024-02-16T21:51:42;26.30;99.90
16114;DHT22;8161;-33.910;151.156;2024-02-16T21:54:09;26.30;99.90
16114;DHT22;8161;-33.910;151.156;2024-02-16T21:56:37;26.40;99.90
16114;DHT22;8161;-33.910;151.156;2024-02-16T21:59:04;26.30;99.90
16114;DHT22;8161;-33.910;151.156;2024-02-16T22:06:29;26.10;99.90
16114;DHT22;8161;-33.910;151.156;2024-02-16T22:08:56;26.10;99.90
16114;DHT22;8161;-33.910;151.156;2024-02-16T22:11:24;26.20;99.90
16114;DHT22;8161;-33.910;151.156;2024-02-16T22:13:53;26.50;99.90
16114;DHT22;8161;-33.910;151.156;2024-02-16T22:21:17;26.60;99.90
16114;DHT22;8161;-33.910;151.156;2024-02-16T22:23:45;26.60;99.90
16114;DHT22;8161;-33.910;151.156;2024-02-16T22:26:12;26.50;99.90
16114;DHT22;8161;-33.910;151.156;2024-02-16T22:31:06;26.60;99.90
16114;DHT22;8161;-33.910;151.156;2024-02-16T22:36:01;26.90;99.90
16114;DHT22;8161;-33.910;151.156;2024-02-16T22:38:28;27.00;99.90
16114;DHT22;8161;-33.910;151.156;2024-02-16T22:40:58;27.20;99.90
16114;DHT22;8161;-33.910;151.156;2024-02-16T22:45:53;27.50;99.90
16114;DHT22;8161;-33.910;151.156;2024-02-16T22:48:20;27.60;99.90
16114;DHT22;8161;-33.910;151.156;2024-02-16T22:50:47;27.80;99.90
16114;DHT22;8161;-33.910;151.156;2024-02-16T22:53:15;27.70;99.90
16114;DHT22;8161;-33.910;151.156;2024-02-16T22:55:43;27.60;99.90
16114;DHT22;8161;-33.910;151.156;2024-02-16T22:58:12;27.80;99.90
16114;DHT22;8161;-33.910;151.156;2024-02-16T23:00:39;27.90;99.90
16114;DHT22;8161;-33.910;151.156;2024-02-16T23:03:08;28.20;99.90
16114;DHT22;8161;-33.910;151.156;2024-02-16T23:08:06;28.20;99.90
16114;DHT22;8161;-33.910;151.156;2024-02-16T23:10:37;28.90;99.90
16114;DHT22;8161;-33.910;151.156;2024-02-16T23:18:07;29.10;99.90
16114;DHT22;8161;-33.910;151.156;2024-02-16T23:20:34;29.40;99.90
16114;DHT22;8161;-33.910;151.156;2024-02-16T23:25:31;29.90;99.90
16114;DHT22;8161;-33.910;151.156;2024-02-16T23:30:28;29.40;99.90
16114;DHT22;8161;-33.910;151.156;2024-02-16T23:32:55;29.20;99.90
16114;DHT22;8161;-33.910;151.156;2024-02-16T23:35:23;29.20;99.90
16114;DHT22;8161;-33.910;151.156;2024-02-16T23:37:51;29.00;99.90
16114;DHT22;8161;-33.910;151.156;2024-02-16T23:42:46;29.10;99.90
16114;DHT22;8161;-33.910;151.156;2024-02-16T23:45:15;29.00;99.90
16114;DHT22;8161;-33.910;151.156;2024-02-16T23:47:44;28.90;99.90
16114;DHT22;8161;-33.910;151.156;2024-02-16T23:50:13;29.00;99.90
16114;DHT22;8161;-33.910;151.156;2024-02-16T23:52:41;29.10;99.90
16114;DHT22;8161;-33.910;151.156;2024-02-16T23:55:09;28.90;99.90
